EBCI - Charleroi/Gosselies, Belgium
Distance de la station: NE 18km
Mise à jour: 10/05/2021 20:50
clair
clair
 Wind from S
Vent: S 13 km/h
Température: 16°C
Point de rosée: 7°C
Humidité: 55%
Baromètre: 1008 hPa
Résumé: clair
Visibilité: greater than 10 km
2021/05/10 18:50 EBCI 101850Z 18007KT CAVOK 16/07 Q1008 NOSIG
EBFS - Florennes, Belgium
Distance de la station: ESE 31km
Mise à jour: 10/05/2021 20:55
principalement nuageux
principalement nuageux
 Wind from S
Vent: S 9 km/h
Température: 15°C
Point de rosée: 7°C
Humidité: 59%
Baromètre: 1008 hPa
Ciel: principalement nuageux
Visibilité: 10 km
Détails du ciel: quelques nuages 1219 m
principalement nuageux 5486 m
2021/05/10 18:55 EBFS 101855Z 17005KT 9999 FEW040 BKN180 15/07 Q1008 BLU BLU
EBCV - Chievres, Belgium
Distance de la station: NO 40km
Mise à jour: 10/05/2021 20:55
principalement nuageux
principalement nuageux
 Wind from S
Vent: S 7 km/h
Température: 15°C
Point de rosée: 9°C
Humidité: 68%
Baromètre: 1007 hPa
Ciel: principalement nuageux
Visibilité: 10 km
Détails du ciel: principalement nuageux 5486 m
2021/05/10 18:55 EBCV 101855Z AUTO 19004KT 9999 BKN180/// 15/09 Q1007 BLU
 
EBBE - Beauvechain, Belgium
Distance de la station: NE 57km
Mise à jour: 10/05/2021 20:55
principalement nuageux
principalement nuageux
 Wind from S
Vent: S 13 km/h
Température: 16°C
Point de rosée: 7°C
Humidité: 55%
Baromètre: 1007 hPa
Ciel: principalement nuageux
Visibilité: 10 km
Détails du ciel: principalement nuageux 5182 m
2021/05/10 18:55 EBBE 101855Z 19007KT 9999 BKN170 16/07 Q1007 BLU BLU
EBBR - Brussels National, Belgium
Distance de la station: NNE 63km
Mise à jour: 10/05/2021 20:50
clair
clair
 Wind from SSO
Vent: SSO 9 km/h
Température: 16°C
Point de rosée: 6°C
Humidité: 52%
Baromètre: 1007 hPa
Résumé: clair
Visibilité: greater than 10 km
2021/05/10 18:50 EBBR 101850Z 21005KT CAVOK 16/06 Q1007 NOSIG
LFQI - Cambrai/Epinoy, France
Distance de la station: O 82km
Mise à jour: 29/06/2012 12:30
NOT Current

 Wind from SO
Vent: SO 17 km/h
Température: 18°C
Point de rosée: 14°C
Humidité: 78%
Baromètre: 1009 hPa
2012/06/29 10:30 LFQI 291030Z AUTO 22009KT //// // ///////// 18/14 Q1009
 
LFQQ - Lille/Lesquin, France
Distance de la station: ONO 86km
Mise à jour: 10/05/2021 21:00
clair
clair
 Wind from S
Vent: S 13 km/h
Température: 17°C
Point de rosée: 7°C
Humidité: 52%
Baromètre: 1007 hPa
Résumé: clair
Visibilité: greater than 10 km
2021/05/10 19:00 LFQQ 101900Z AUTO 18007KT CAVOK 17/07 Q1007 NOSIG
EBLG - Bierset/Liege, Belgium
Distance de la station: ENE 89km
Mise à jour: 10/05/2021 20:50
clair
clair
 Wind from SO
Vent: SO 13 km/h
Température: 16°C
Point de rosée: 8°C
Humidité: 59%
Baromètre: 1008 hPa
Résumé: clair
Visibilité: greater than 10 km
2021/05/10 18:50 EBLG 101850Z 23007KT CAVOK 16/08 Q1008 NOSIG
EBDT - Schaffen, Belgium
Distance de la station: NE 93km
Mise à jour: 10/05/2021 20:55
principalement nuageux
principalement nuageux
 Wind from S
Vent: S 11 km/h
Température: 18°C
Point de rosée: 7°C
Humidité: 49%
Baromètre: 1007 hPa
Ciel: principalement nuageux
Visibilité: 10 km
Détails du ciel: principalement nuageux 5486 m
2021/05/10 18:55 EBDT 101855Z AUTO 19006KT 9999 BKN180/// 18/07 Q1007 BLU
 
EBAW - Antwerp/Deurne, Belgium
Distance de la station: N 96km
Mise à jour: 10/05/2021 20:50
clair
clair
 Wind from SO
Vent: SO 9 km/h
Température: 18°C
Point de rosée: 7°C
Humidité: 49%
Baromètre: 1007 hPa
Résumé: clair
Visibilité: greater than 10 km
2021/05/10 18:50 EBAW 101850Z 23005KT CAVOK 18/07 Q1007 NOSIG
LFAQ - Bray, France
Distance de la station: OSO 119km
Mise à jour: 10/05/2021 21:00
Thunderstorm
Thunderstorm
 Wind from SSO
Vent: SSO 11 km/h
Température: 13°C
Point de rosée: 10°C
Humidité: 82%
Baromètre: 1007 hPa
Ciel: Thunderstorm
Visibilité: 10 km
Détails du ciel: quelques nuages 1494 m
principalement nuageux 1768 m
principalement nuageux 2621 m
2021/05/10 19:00 LFAQ 101900Z AUTO 20006KT 160V230 9999 FEW049/// BKN058/// BKN086/// ///CB 13/10 Q1007
LFSR - Reims/Champagne, France
Distance de la station: S 120km
Mise à jour: 16/04/2012 09:00
NOT Current
partiellement nuageux
partiellement nuageux
 Wind from N
Vent: N 17 km/h
Température: 4°C
Température ressentie: 0°C
Point de rosée: 0°C
Humidité: 75%
Baromètre: 1022 hPa
Ciel: partiellement nuageux
Visibilité: 10 km
2012/04/16 07:00 LFSR 160700Z AUTO 01009KT 340V070 9999 NSC 04/00 Q1022
 
EHWO - Woensdrecht, Netherlands
Distance de la station: N 122km
Mise à jour: 10/05/2021 20:55
couvert
couvert
 Wind from ONO
Vent: ONO 13 km/h
Température: 16°C
Point de rosée: 9°C
Humidité: 63%
Baromètre: 1007 hPa
Ciel: couvert
Visibilité: 10 km
Détails du ciel: couvert 5486 m
2021/05/10 18:55 EHWO 101855Z AUTO 30007KT 260V340 9999 OVC180 16/09 Q1007 BLU
EHBK - Zuid-Limburg, Netherlands
Distance de la station: ENE 123km
Mise à jour: 10/05/2021 20:55
partiellement nuageux
partiellement nuageux
 Wind from S
Vent: S 7 km/h
Température: 17°C
Point de rosée: 9°C
Humidité: 59%
Baromètre: 1008 hPa
Ciel: partiellement nuageux
Visibilité: 10 km
2021/05/10 18:55 EHBK 101855Z AUTO 19004KT 9999 NSC 17/09 Q1008 NOSIG
EBBL - Kleine-Brogel, Belgium
Distance de la station: NE 124km
Mise à jour: 10/05/2021 20:55
principalement nuageux
principalement nuageux
 Wind from SO
Vent: SO 9 km/h
Température: 18°C
Point de rosée: 7°C
Humidité: 49%
Baromètre: 1007 hPa
Ciel: principalement nuageux
Visibilité: 10 km
Détails du ciel: quelques nuages 1829 m
principalement nuageux 5486 m
2021/05/10 18:55 EBBL 101855Z 22005KT 9999 FEW060 BKN180 18/07 Q1007 BLU BLU
 
EBLB - Elsenborn, Belgium
Distance de la station: E 135km
Mise à jour: 10/05/2021 20:55
couvert
couvert
 Wind from S
Vent: S 7 km/h
Température: 12°C
Point de rosée: 7°C
Humidité: 72%
Baromètre: 1009 hPa
Ciel: couvert
Visibilité: 10 km
Détails du ciel: couvert 4267 m
2021/05/10 18:55 EBLB 101855Z AUTO 17004KT 9999 OVC140/// 12/07 Q1009 BLU
EBOS - Oostende Airport, Belgium
Distance de la station: NO 136km
Mise à jour: 10/05/2021 20:50
pluie légère, Showers, partiellement nuageux
pluie légère, Showers, partiellement nuageux
 Wind from S
Vent: S 20 km/h
Température: 14°C
Point de rosée: 9°C
Humidité: 72%
Baromètre: 1008 hPa
Résumé: pluie légère, Showers
Ciel: partiellement nuageux
Visibilité: 7 km
Détails du ciel: partiellement nuageux 1097 m
2021/05/10 18:50 EBOS 101850Z 17011KT 7000 -SHRA SCT036TCU 14/09 Q1008 NOSIG
EBFN - Koksijde, Belgium
Distance de la station: NO 140km
Mise à jour: 10/05/2021 20:55
quelques nuages
quelques nuages
 Wind from S
Vent: S 7 km/h
Température: 14°C
Point de rosée: 9°C
Humidité: 72%
Baromètre: 1007 hPa
Ciel: quelques nuages
Visibilité: 10 km
Détails du ciel: quelques nuages 3353 m
2021/05/10 18:55 EBFN 101855Z AUTO 18004KT 9999 FEW110/// 14/09 Q1007 BLU
 
ETNG - Geilenkirchen, Germany
Distance de la station: ENE 142km
Mise à jour: 10/05/2021 20:50
clair
clair
 Wind from S
Vent: S 4 km/h
Température: 18°C
Point de rosée: 9°C
Humidité: 56%
Baromètre: 1008 hPa
Résumé: clair
Visibilité: greater than 10 km
2021/05/10 18:50 ETNG 101850Z 17002KT CAVOK 18/09 Q1008
EHGR - Gilze-Rijen, Netherlands
Distance de la station: NNE 143km
Mise à jour: 10/05/2021 20:55
couvert
couvert
 Wind from S
Vent: S 9 km/h
Température: 17°C
Point de rosée: 8°C
Humidité: 56%
Baromètre: 1007 hPa
Ciel: couvert
Visibilité: 10 km
Détails du ciel: couvert 5182 m
2021/05/10 18:55 EHGR 101855Z AUTO 19005KT 120V240 9999 OVC170 17/08 Q1007 BLU
EHEH - Eindhoven, Netherlands
Distance de la station: NNE 147km
Mise à jour: 10/05/2021 20:55
couvert
couvert
 Wind from SSO
Vent: SSO 11 km/h
Température: 17°C
Point de rosée: 7°C
Humidité: 52%
Baromètre: 1007 hPa
Ciel: couvert
Visibilité: 10 km
Détails du ciel: couvert 4877 m
2021/05/10 18:55 EHEH 101855Z AUTO 20006KT 170V230 9999 OVC160 17/07 Q1007 BLU NOSIG
 
ELLX - Luxembourg, Luxembourg
Distance de la station: ESE 162km
Mise à jour: 10/05/2021 20:50
principalement nuageux
principalement nuageux
 Wind from SSE
Vent: SSE 11 km/h
Température: 13°C
Point de rosée: 10°C
Humidité: 82%
Baromètre: 1009 hPa
Ciel: principalement nuageux
Visibilité: 10 km
Détails du ciel: quelques nuages 549 m
principalement nuageux 1128 m
2021/05/10 18:50 ELLX 101850Z 15006KT 9999 FEW018 BKN037 13/10 Q1009 TEMPO RA
EHVK - Volkel, Netherlands
Distance de la station: NE 174km
Mise à jour: 10/05/2021 20:55
couvert
couvert
 Wind from SO
Vent: SO 6 km/h
Température: 17°C
Point de rosée: 8°C
Humidité: 56%
Baromètre: 1007 hPa
Ciel: couvert
Visibilité: 10 km
Détails du ciel: principalement nuageux 2499 m
couvert 5182 m
2021/05/10 18:55 EHVK 101855Z AUTO 22003KT 9999 BKN082 OVC170 17/08 Q1007 BLU
LFOK - Chalons/Vatry, France
Distance de la station: S 174km
Mise à jour: 10/05/2021 21:00
clair
clair
 Wind from S
Vent: S 13 km/h
Température: 14°C
Point de rosée: 10°C
Humidité: 77%
Baromètre: 1008 hPa
Résumé: clair
Visibilité: greater than 10 km
2021/05/10 19:00 LFOK 101900Z AUTO 17007KT CAVOK 14/10 Q1008 NOSIG
Script from Saratoga-Weather.org